createdAt,value
2023-03-23T00:02:01.688Z,30.49
2023-03-23T00:06:01.675Z,28.21
2023-03-23T00:10:01.710Z,26.91
2023-03-23T00:14:01.664Z,26.23
2023-03-23T00:18:01.690Z,28.09
2023-03-23T00:22:01.665Z,28.40
2023-03-23T00:26:01.665Z,28.55
2023-03-23T00:30:01.682Z,26.90
2023-03-23T00:34:01.679Z,27.61
2023-03-23T00:38:01.692Z,28.14
2023-03-23T00:42:01.723Z,28.72
2023-03-23T00:46:01.717Z,28.79
2023-03-23T00:50:01.742Z,27.26
2023-03-23T00:54:01.807Z,29.83
2023-03-23T00:58:01.774Z,26.94
2023-03-23T01:02:01.776Z,30.58
2023-03-23T01:06:01.791Z,27.71
2023-03-23T01:10:01.837Z,27.35
2023-03-23T01:14:01.846Z,31.35
2023-03-23T01:18:01.882Z,27.84
2023-03-23T01:22:01.919Z,27.95
2023-03-23T01:26:01.952Z,28.94
2023-03-23T01:30:01.997Z,27.58
2023-03-23T01:34:02.066Z,27.61
2023-03-23T01:38:02.083Z,29.45
2023-03-23T01:42:02.282Z,29.93
2023-03-23T01:46:02.176Z,29.06
2023-03-23T01:50:02.256Z,29.59
2023-03-23T01:54:02.319Z,25.93
2023-03-23T01:58:02.372Z,26.03
2023-03-23T02:02:02.384Z,28.16
2023-03-23T02:06:02.502Z,29.08
2023-03-23T02:10:02.505Z,27.34
2023-03-23T02:14:02.562Z,30.26
2023-03-23T02:18:02.630Z,29.72
2023-03-23T02:22:02.665Z,27.39
2023-03-23T02:26:02.727Z,30.64
2023-03-23T02:30:02.812Z,26.93
2023-03-23T02:34:02.892Z,26.96
2023-03-23T02:38:02.931Z,26.03
2023-03-23T02:42:02.966Z,27.98
2023-03-23T02:46:03.843Z,28.11
2023-03-23T02:50:02.780Z,32.26
2023-03-23T02:54:02.711Z,28.28
2023-03-23T02:58:02.590Z,28.32
2023-03-23T03:02:02.587Z,32.81
2023-03-23T03:06:02.683Z,28.02
2023-03-23T03:10:02.733Z,26.83
2023-03-23T03:14:02.837Z,30.34
2023-03-23T03:18:02.859Z,30.23
2023-03-23T03:22:02.964Z,31.45
2023-03-23T03:26:03.022Z,26.21
2023-03-23T03:30:03.077Z,28.59
2023-03-23T03:34:03.156Z,25.59
2023-03-23T03:38:03.217Z,28.16
2023-03-23T03:42:03.272Z,25.80
2023-03-23T03:46:03.316Z,29.37
2023-03-23T03:50:03.405Z,32.02
2023-03-23T03:54:03.412Z,30.29
2023-03-23T03:58:03.527Z,28.85
2023-03-23T04:02:03.572Z,29.17
2023-03-23T04:06:03.646Z,28.68
2023-03-23T04:10:03.712Z,27.10
2023-03-23T04:14:03.764Z,28.17
2023-03-23T04:18:03.836Z,32.17
2023-03-23T04:22:03.894Z,27.64
2023-03-23T04:26:03.969Z,29.59
2023-03-23T04:30:04.070Z,28.19
2023-03-23T04:34:04.145Z,30.15
2023-03-23T04:38:04.194Z,30.46
2023-03-23T04:42:04.277Z,26.19
2023-03-23T04:46:04.401Z,27.18
2023-03-23T04:50:04.491Z,25.76
2023-03-23T04:54:04.547Z,27.56
2023-03-23T04:58:04.633Z,28.39
2023-03-23T05:02:14.365Z,25.00
2023-03-23T05:06:05.679Z,28.41
2023-03-23T05:10:04.621Z,28.35
2023-03-23T05:14:04.488Z,27.97
2023-03-23T05:18:04.541Z,28.50
2023-03-23T05:22:04.676Z,29.29
2023-03-23T05:26:04.749Z,28.82
2023-03-23T05:30:04.838Z,30.51
2023-03-23T05:34:04.948Z,29.32
2023-03-23T05:38:05.015Z,28.54
2023-03-23T05:42:05.096Z,31.23
2023-03-23T05:46:05.173Z,28.12
2023-03-23T05:50:05.254Z,28.00
2023-03-23T05:54:05.343Z,32.88
2023-03-23T05:58:05.395Z,35.33
2023-03-23T06:02:05.491Z,32.70
2023-03-23T06:06:05.554Z,32.08
2023-03-23T06:10:05.658Z,34.09
2023-03-23T06:14:05.677Z,30.23
2023-03-23T06:18:05.735Z,33.82
2023-03-23T06:22:05.813Z,33.46
2023-03-23T06:26:05.861Z,32.43
2023-03-23T06:30:05.961Z,34.22
2023-03-23T06:34:06.052Z,35.15
2023-03-23T06:38:06.363Z,32.86
2023-03-23T06:42:06.155Z,44.68
2023-03-23T06:46:06.388Z,61.43
2023-03-23T06:50:06.373Z,63.21
2023-03-23T06:54:06.361Z,79.77
2023-03-23T06:58:06.137Z,105.81
2023-03-23T07:02:06.405Z,118.33
2023-03-23T07:06:07.029Z,141.88
2023-03-23T07:10:06.383Z,163.82
2023-03-23T07:14:06.319Z,188.99
2023-03-23T07:18:06.469Z,205.48
2023-03-23T07:22:06.629Z,242.57
2023-03-23T07:26:06.683Z,239.69
2023-03-23T07:30:06.798Z,247.72
2023-03-23T07:34:06.934Z,247.75
2023-03-23T07:38:07.066Z,247.89
2023-03-23T07:42:07.379Z,250.00
2023-03-23T07:46:07.393Z,248.78
2023-03-23T07:50:07.352Z,242.93
2023-03-23T07:54:07.384Z,132.41
2023-03-23T07:58:07.883Z,126.13
2023-03-23T08:02:07.459Z,145.20
2023-03-23T08:06:07.927Z,156.54
2023-03-23T08:10:07.572Z,165.52
2023-03-23T08:14:07.909Z,182.94
2023-03-23T08:18:07.335Z,199.75
2023-03-23T08:22:07.239Z,206.89
2023-03-23T08:26:07.129Z,218.38
2023-03-23T08:30:07.412Z,232.94
2023-03-23T08:34:06.888Z,239.93
2023-03-23T08:38:06.915Z,246.86
2023-03-23T08:42:06.937Z,242.73
2023-03-23T08:46:06.935Z,247.02
2023-03-23T08:50:06.321Z,240.44
2023-03-23T08:54:06.403Z,239.30
2023-03-23T08:58:06.454Z,232.05
2023-03-23T09:02:06.419Z,231.28
2023-03-23T09:06:06.406Z,230.89
2023-03-23T09:10:06.444Z,228.38
2023-03-23T09:14:06.612Z,228.00
2023-03-23T09:18:06.925Z,218.96
2023-03-23T09:22:06.360Z,213.35
2023-03-23T09:26:06.212Z,212.45
2023-03-23T09:30:06.097Z,211.93
2023-03-23T09:34:06.059Z,205.87
2023-03-23T09:38:06.441Z,200.28
2023-03-23T09:42:05.888Z,204.38
2023-03-23T09:46:05.943Z,211.90
2023-03-23T09:50:05.947Z,221.22
2023-03-23T09:54:06.450Z,182.18
2023-03-23T09:58:06.488Z,137.75
2023-03-23T10:02:06.077Z,169.46
2023-03-23T10:06:06.030Z,177.77
2023-03-23T10:10:05.962Z,175.02
2023-03-23T10:14:05.867Z,179.27
2023-03-23T10:18:05.783Z,187.37
2023-03-23T10:22:05.682Z,201.77
2023-03-23T10:26:05.609Z,213.81
2023-03-23T10:30:05.545Z,226.08
2023-03-23T10:34:05.434Z,236.22
2023-03-23T10:38:05.310Z,244.28
2023-03-23T10:42:05.447Z,240.10
2023-03-23T10:46:05.740Z,202.15
2023-03-23T10:50:05.456Z,216.52
2023-03-23T10:54:05.462Z,220.03
2023-03-23T10:58:04.947Z,215.60
2023-03-23T11:02:04.884Z,217.06
2023-03-23T11:06:05.028Z,209.53
2023-03-23T11:10:04.683Z,201.77
2023-03-23T11:14:04.622Z,200.66
2023-03-23T11:18:04.989Z,192.96
2023-03-23T11:22:04.446Z,188.21
2023-03-23T11:26:04.476Z,187.69
2023-03-23T11:30:04.223Z,189.93
2023-03-23T11:34:06.230Z,190.17
2023-03-23T11:38:04.504Z,188.28
2023-03-23T11:42:09.569Z,182.06
2023-03-23T11:46:04.899Z,131.06
2023-03-23T11:50:03.769Z,133.77
2023-03-23T11:54:03.729Z,149.45
2023-03-23T11:58:03.603Z,111.75
2023-03-23T12:02:16.770Z,106.43
2023-03-23T12:06:04.499Z,107.73
2023-03-23T12:10:03.993Z,70.14
2023-03-23T12:14:03.608Z,77.71
2023-03-23T12:18:03.744Z,77.63
2023-03-23T12:22:03.820Z,26.16
2023-03-23T12:26:04.000Z,39.67
2023-03-23T12:30:04.540Z,15.03
2023-03-23T12:34:04.483Z,42.15
2023-03-23T12:38:04.438Z,64.72
2023-03-23T12:42:04.545Z,27.12
2023-03-23T12:46:05.010Z,58.34
2023-03-23T12:50:04.888Z,68.59
2023-03-23T12:54:05.516Z,56.32
2023-03-23T12:58:04.916Z,48.66
2023-03-23T13:02:05.015Z,51.23
2023-03-23T13:06:04.761Z,43.40
2023-03-23T13:10:05.390Z,51.74
2023-03-23T13:14:04.612Z,65.24
2023-03-23T13:18:05.029Z,47.29
2023-03-23T13:22:04.530Z,65.08
2023-03-23T13:26:04.559Z,36.54
2023-03-23T13:30:04.506Z,25.35
2023-03-23T13:34:04.576Z,52.02
2023-03-23T13:38:04.734Z,51.27
2023-03-23T13:42:04.832Z,37.77
2023-03-23T13:46:05.001Z,65.12
2023-03-23T13:50:05.166Z,59.18
2023-03-23T13:54:05.268Z,74.54
2023-03-23T13:58:05.430Z,85.89
2023-03-23T14:02:05.526Z,90.49
2023-03-23T14:06:05.675Z,91.79
2023-03-23T14:10:05.783Z,89.04
2023-03-23T14:14:06.065Z,70.09
2023-03-23T14:18:06.556Z,88.06
2023-03-23T14:22:06.236Z,92.56
2023-03-23T14:30:06.343Z,17.70
2023-03-23T14:34:06.311Z,60.66
2023-03-23T14:38:06.212Z,152.83
2023-03-23T14:46:06.194Z,166.28
2023-03-23T14:54:06.263Z,173.47
2023-03-23T14:58:06.226Z,181.18
2023-03-23T15:02:06.619Z,167.84
2023-03-23T15:06:06.108Z,173.25
2023-03-23T15:10:06.021Z,173.32
2023-03-23T15:14:06.598Z,179.63
2023-03-23T15:18:06.435Z,168.06
2023-03-23T15:22:06.587Z,168.27
2023-03-23T15:26:06.751Z,172.70
2023-03-23T15:30:06.927Z,170.23
2023-03-23T15:34:07.097Z,162.97
2023-03-23T15:38:07.227Z,163.11
2023-03-23T15:42:07.385Z,162.77
2023-03-23T15:46:07.550Z,153.65
2023-03-23T15:50:07.690Z,154.54
2023-03-23T15:54:12.463Z,151.16
2023-03-23T15:58:08.808Z,154.44
2023-03-23T16:02:07.767Z,152.90
2023-03-23T16:06:07.740Z,153.72
2023-03-23T16:10:07.949Z,153.65
2023-03-23T16:14:08.107Z,149.77
2023-03-23T16:18:08.134Z,148.08
2023-03-23T16:22:07.989Z,148.66
2023-03-23T16:26:07.935Z,149.56
2023-03-23T16:30:07.832Z,148.60
2023-03-23T16:34:07.769Z,150.59
2023-03-23T16:38:09.209Z,144.49
2023-03-23T16:42:07.616Z,149.40
2023-03-23T16:46:07.567Z,147.70
2023-03-23T16:50:07.473Z,146.72
2023-03-23T16:54:07.638Z,147.64
2023-03-23T16:58:16.551Z,146.09
2023-03-23T17:02:08.499Z,147.27
2023-03-23T17:06:07.674Z,146.24
2023-03-23T17:10:07.494Z,144.96
2023-03-23T17:14:07.429Z,142.09
2023-03-23T17:18:07.384Z,141.22
2023-03-23T17:22:07.287Z,141.22
2023-03-23T17:26:07.265Z,141.45
2023-03-23T17:30:07.167Z,138.28
2023-03-23T17:34:07.113Z,138.03
2023-03-23T17:38:07.026Z,137.37
2023-03-23T17:42:06.956Z,134.17
2023-03-23T17:46:06.918Z,136.20
2023-03-23T17:50:11.496Z,134.54
2023-03-23T17:54:07.756Z,133.80
2023-03-23T17:58:06.723Z,132.89
2023-03-23T18:02:06.801Z,132.64
2023-03-23T18:06:06.924Z,130.45
2023-03-23T18:10:07.126Z,130.82
2023-03-23T18:14:07.334Z,131.75
2023-03-23T18:18:07.544Z,129.50
2023-03-23T18:22:07.521Z,129.08
2023-03-23T18:26:07.439Z,127.74
2023-03-23T18:30:07.377Z,127.09
2023-03-23T18:34:07.359Z,125.16
2023-03-23T18:38:07.267Z,126.50
2023-03-23T18:42:07.195Z,122.49
2023-03-23T18:46:07.219Z,123.68
2023-03-23T18:50:07.149Z,121.50
2023-03-23T18:54:07.012Z,123.11
2023-03-23T18:58:07.115Z,121.82
2023-03-23T19:02:08.222Z,120.72
2023-03-23T19:06:07.309Z,121.36
2023-03-23T19:10:07.234Z,121.28
2023-03-23T19:14:07.204Z,121.26
2023-03-23T19:18:07.140Z,121.95
2023-03-23T19:22:07.083Z,122.00
2023-03-23T19:26:07.045Z,119.91
2023-03-23T19:30:06.978Z,122.49
2023-03-23T19:34:06.925Z,123.08
2023-03-23T19:38:06.874Z,123.58
2023-03-23T19:42:07.198Z,123.55
2023-03-23T19:46:06.932Z,122.71
2023-03-23T19:50:07.016Z,122.69
2023-03-23T19:54:06.860Z,121.56
2023-03-23T19:58:06.786Z,120.47
2023-03-23T20:02:06.824Z,119.32
2023-03-23T20:06:07.162Z,117.20
2023-03-23T20:10:06.694Z,116.94
2023-03-23T20:14:06.973Z,117.11
2023-03-23T20:18:06.741Z,115.27
2023-03-23T20:22:06.640Z,115.65
2023-03-23T20:26:06.871Z,113.60
2023-03-23T20:30:06.959Z,113.43
2023-03-23T20:34:07.112Z,113.27
2023-03-23T20:38:07.207Z,113.24
2023-03-23T20:42:07.306Z,111.18
2023-03-23T20:46:07.470Z,111.10
2023-03-23T20:50:07.557Z,110.93
2023-03-23T20:54:07.672Z,110.20
2023-03-23T20:58:07.700Z,108.33
2023-03-23T21:02:07.751Z,107.03
2023-03-23T21:06:07.911Z,106.16
2023-03-23T21:10:08.094Z,105.85
2023-03-23T21:14:08.115Z,104.95
2023-03-23T21:18:08.235Z,104.53
2023-03-23T21:22:08.334Z,104.58
2023-03-23T21:26:08.328Z,102.49
2023-03-23T21:30:08.387Z,101.21
2023-03-23T21:34:08.508Z,103.94
2023-03-23T21:38:08.563Z,103.34
2023-03-23T21:42:08.664Z,100.29
2023-03-23T21:46:08.757Z,100.21
2023-03-23T21:50:08.795Z,99.46
2023-03-23T21:54:08.953Z,97.92
2023-03-23T21:58:09.001Z,96.60
2023-03-23T22:02:09.069Z,95.63
2023-03-23T22:06:09.206Z,96.17
2023-03-23T22:10:09.255Z,95.08
2023-03-23T22:14:09.331Z,95.18
2023-03-23T22:18:09.452Z,94.64
2023-03-23T22:22:09.465Z,92.88
2023-03-23T22:26:09.575Z,92.85
2023-03-23T22:30:09.627Z,90.38
2023-03-23T22:34:09.748Z,89.71
2023-03-23T22:38:09.773Z,88.64
2023-03-23T22:42:11.755Z,89.80
2023-03-23T22:46:09.892Z,88.88
2023-03-23T22:50:09.804Z,87.62
2023-03-23T22:54:09.723Z,85.00
2023-03-23T22:58:09.683Z,85.33
2023-03-23T23:02:09.594Z,83.27
2023-03-23T23:06:09.553Z,83.31
2023-03-23T23:10:09.501Z,81.91
2023-03-23T23:14:09.427Z,81.16
2023-03-23T23:18:09.361Z,83.20
2023-03-23T23:22:18.288Z,81.13
2023-03-23T23:26:10.235Z,80.16
2023-03-23T23:30:09.157Z,79.96
2023-03-23T23:34:09.104Z,78.38
2023-03-23T23:38:09.160Z,76.29
2023-03-23T23:42:09.184Z,78.95
2023-03-23T23:46:09.287Z,76.80
2023-03-23T23:50:09.416Z,77.17
2023-03-23T23:54:09.499Z,75.42
2023-03-23T23:58:09.588Z,72.42
